createdAt,value
2022-08-22T00:02:32.890Z,2.20
2022-08-22T00:02:49.712Z,1.90
2022-08-22T00:03:10.557Z,1.80
2022-08-22T00:03:12.015Z,2.33
2022-08-22T00:05:25.961Z,2.23
2022-08-22T00:08:17.101Z,2.40
2022-08-22T00:10:55.102Z,2.40
2022-08-22T00:13:32.066Z,2.40
2022-08-22T00:16:02.185Z,2.10
2022-08-22T00:18:38.056Z,2.23
2022-08-22T00:21:20.372Z,2.07
2022-08-22T00:23:54.785Z,2.03
2022-08-22T00:26:34.516Z,1.93
2022-08-22T00:29:04.617Z,2.00
2022-08-22T00:31:33.379Z,2.13
2022-08-22T00:34:14.422Z,2.37
2022-08-22T00:36:51.303Z,2.23
2022-08-22T00:39:27.661Z,2.83
2022-08-22T00:42:29.485Z,2.30
2022-08-22T00:45:37.950Z,2.13
2022-08-22T00:48:32.126Z,2.00
2022-08-22T00:51:36.428Z,2.43
2022-08-22T00:54:17.576Z,2.30
2022-08-22T00:57:03.822Z,2.00
2022-08-22T00:59:52.045Z,2.10
2022-08-22T01:02:36.891Z,2.20
2022-08-22T01:05:27.905Z,2.27
2022-08-22T01:08:13.465Z,2.80
2022-08-22T01:11:05.830Z,2.30
2022-08-22T01:13:58.741Z,3.03
2022-08-22T01:16:54.859Z,2.50
2022-08-22T01:19:40.068Z,2.20
2022-08-22T01:22:19.887Z,2.10
2022-08-22T01:25:22.459Z,2.00
2022-08-22T01:28:17.312Z,2.23
2022-08-22T01:31:21.058Z,2.53
2022-08-22T01:34:15.653Z,2.67
2022-08-22T01:37:11.846Z,2.20
2022-08-22T01:39:48.841Z,2.70
2022-08-22T01:42:34.700Z,2.20
2022-08-22T01:45:21.490Z,2.43
2022-08-22T01:48:10.553Z,2.30
2022-08-22T01:50:58.553Z,2.47
2022-08-22T01:53:41.709Z,2.20
2022-08-22T01:56:15.891Z,2.40
2022-08-22T01:59:04.896Z,2.50
2022-08-22T02:01:43.718Z,2.37
2022-08-22T02:04:31.187Z,2.60
2022-08-22T02:07:07.194Z,2.83
2022-08-22T02:10:01.886Z,2.63
2022-08-22T02:12:41.875Z,2.63
2022-08-22T02:15:14.896Z,3.10
2022-08-22T02:18:04.949Z,3.17
2022-08-22T02:20:56.150Z,2.60
2022-08-22T02:23:48.278Z,2.57
2022-08-22T02:26:20.241Z,2.93
2022-08-22T02:29:19.430Z,2.80
2022-08-22T02:31:56.313Z,2.70
2022-08-22T02:34:46.329Z,2.53
2022-08-22T02:37:42.527Z,2.50
2022-08-22T02:40:27.516Z,2.60
2022-08-22T02:43:12.594Z,2.30
2022-08-22T02:45:51.304Z,2.80
2022-08-22T02:48:30.084Z,2.70
2022-08-22T02:51:01.356Z,2.30
2022-08-22T02:53:47.530Z,2.70
2022-08-22T02:56:54.041Z,2.90
2022-08-22T02:59:34.961Z,2.77
2022-08-22T03:02:39.151Z,2.60
2022-08-22T03:05:38.328Z,2.63
2022-08-22T03:08:17.109Z,2.40
2022-08-22T03:10:54.765Z,2.70
2022-08-22T03:13:36.544Z,2.70
2022-08-22T03:16:28.064Z,2.60
2022-08-22T03:19:04.024Z,2.53
2022-08-22T03:21:56.855Z,2.40
2022-08-22T03:24:38.819Z,2.50
2022-08-22T03:27:14.217Z,2.60
2022-08-22T03:30:06.250Z,2.87
2022-08-22T03:32:54.617Z,2.70
2022-08-22T03:35:35.164Z,3.23
2022-08-22T03:38:24.979Z,2.40
2022-08-22T03:41:13.109Z,2.70
2022-08-22T03:44:05.022Z,2.40
2022-08-22T03:47:01.786Z,2.50
2022-08-22T03:49:48.431Z,2.30
2022-08-22T03:52:33.555Z,2.43
2022-08-22T03:55:25.393Z,2.47
2022-08-22T03:58:13.610Z,3.00
2022-08-22T04:01:19.701Z,2.43
2022-08-22T04:04:08.061Z,2.20
2022-08-22T04:06:56.374Z,2.50
2022-08-22T04:09:23.849Z,2.37
2022-08-22T04:12:21.842Z,2.73
2022-08-22T04:15:14.327Z,2.93
2022-08-22T04:17:50.129Z,2.80
2022-08-22T04:20:31.925Z,2.87
2022-08-22T04:23:17.049Z,3.23
2022-08-22T04:25:49.058Z,2.70
2022-08-22T04:28:34.528Z,2.90
2022-08-22T04:31:14.786Z,2.50
2022-08-22T04:33:45.442Z,2.80
2022-08-22T04:36:46.067Z,2.67
2022-08-22T04:39:19.265Z,2.40
2022-08-22T04:41:54.238Z,3.27
2022-08-22T04:44:28.430Z,3.40
2022-08-22T04:47:07.302Z,2.73
2022-08-22T04:49:47.310Z,2.83
2022-08-22T04:52:16.072Z,2.80
2022-08-22T04:54:55.042Z,2.90
2022-08-22T04:57:56.262Z,3.13
2022-08-22T05:00:23.703Z,2.97
2022-08-22T05:02:52.215Z,3.07
2022-08-22T05:05:25.181Z,2.83
2022-08-22T05:07:58.788Z,2.90
2022-08-22T05:10:37.661Z,3.20
2022-08-22T05:13:10.096Z,2.83
2022-08-22T05:15:44.563Z,2.77
2022-08-22T05:18:29.758Z,2.87
2022-08-22T05:20:59.835Z,3.23
2022-08-22T05:23:51.576Z,3.03
2022-08-22T05:26:19.495Z,2.73
2022-08-22T05:28:53.422Z,2.97
2022-08-22T05:31:29.135Z,2.90
2022-08-22T05:34:26.765Z,3.20
2022-08-22T05:37:15.360Z,3.13
2022-08-22T05:39:47.228Z,3.23
2022-08-22T05:42:37.647Z,3.27
2022-08-22T05:45:08.401Z,3.00
2022-08-22T05:47:46.712Z,4.20
2022-08-22T05:50:19.680Z,3.60
2022-08-22T05:53:24.936Z,3.80
2022-08-22T05:56:11.449Z,3.70
2022-08-22T05:58:54.588Z,3.50
2022-08-22T06:01:42.620Z,3.73
2022-08-22T06:04:27.344Z,3.13
2022-08-22T06:07:06.212Z,3.50
2022-08-22T06:09:42.494Z,3.03
2022-08-22T06:12:22.283Z,3.33
2022-08-22T06:15:01.301Z,3.60
2022-08-22T06:17:51.644Z,3.47
2022-08-22T06:20:24.082Z,3.40
2022-08-22T06:22:53.937Z,3.20
2022-08-22T06:25:32.009Z,3.27
2022-08-22T06:28:03.400Z,3.60
2022-08-22T06:30:30.331Z,3.70
2022-08-22T06:33:01.895Z,3.53
2022-08-22T06:35:54.309Z,3.20
2022-08-22T06:38:23.483Z,3.10
2022-08-22T06:40:51.190Z,3.70
2022-08-22T06:43:19.080Z,3.10
2022-08-22T06:45:46.098Z,4.00
2022-08-22T06:48:17.424Z,3.33
2022-08-22T06:50:46.036Z,3.60
2022-08-22T06:53:26.059Z,3.73
2022-08-22T06:55:55.715Z,3.87
2022-08-22T06:58:43.712Z,3.73
2022-08-22T07:01:21.339Z,3.60
2022-08-22T07:03:54.810Z,3.60
2022-08-22T07:06:30.028Z,4.10
2022-08-22T07:08:57.058Z,3.17
2022-08-22T07:11:32.866Z,3.43
2022-08-22T07:14:11.999Z,4.17
2022-08-22T07:16:42.446Z,3.43
2022-08-22T07:19:13.593Z,3.67
2022-08-22T07:21:45.644Z,3.60
2022-08-22T07:24:18.944Z,3.10
2022-08-22T07:27:13.862Z,3.53
2022-08-22T07:29:47.890Z,3.30
2022-08-22T07:32:17.747Z,3.40
2022-08-22T07:35:21.930Z,3.60
2022-08-22T07:38:08.082Z,3.97
2022-08-22T07:40:56.279Z,3.30
2022-08-22T07:43:42.656Z,4.07
2022-08-22T07:46:18.349Z,4.27
2022-08-22T07:49:09.134Z,3.80
2022-08-22T07:51:43.611Z,3.47
2022-08-22T07:54:13.736Z,3.53
2022-08-22T07:56:46.379Z,3.17
2022-08-22T07:59:17.051Z,3.60
2022-08-22T08:01:47.564Z,3.73
2022-08-22T08:04:39.962Z,4.00
2022-08-22T08:07:09.409Z,4.07
2022-08-22T08:09:41.476Z,4.10
2022-08-22T08:12:10.557Z,3.67
2022-08-22T08:14:40.256Z,4.13
2022-08-22T08:17:17.590Z,3.87
2022-08-22T08:19:45.477Z,3.40
2022-08-22T08:22:18.880Z,3.50
2022-08-22T08:24:47.163Z,3.30
2022-08-22T08:27:45.165Z,3.73
2022-08-22T08:30:20.417Z,4.50
2022-08-22T08:33:25.349Z,3.53
2022-08-22T08:36:02.087Z,3.63
2022-08-22T08:38:48.328Z,3.60
2022-08-22T08:41:23.998Z,3.30
2022-08-22T08:44:22.680Z,4.10
2022-08-22T08:46:58.275Z,3.60
2022-08-22T08:49:38.745Z,3.73
2022-08-22T08:52:29.240Z,3.10
2022-08-22T08:55:21.841Z,3.80
2022-08-22T08:58:20.033Z,3.20
2022-08-22T09:01:28.623Z,3.17
2022-08-22T09:04:04.476Z,3.63
2022-08-22T09:09:56.878Z,4.13
2022-08-22T09:13:12.901Z,3.20
2022-08-22T09:16:04.471Z,3.77
2022-08-22T09:19:10.443Z,3.80
2022-08-22T09:22:14.533Z,4.07
2022-08-22T09:24:52.507Z,3.70
2022-08-22T09:27:32.097Z,3.70
2022-08-22T09:30:11.803Z,4.13
2022-08-22T09:32:44.103Z,4.13
2022-08-22T09:35:16.992Z,4.40
2022-08-22T09:38:08.363Z,3.90
2022-08-22T09:40:15.327Z,3.63
2022-08-22T09:41:12.831Z,4.13
2022-08-22T09:43:49.172Z,3.70
2022-08-22T09:46:29.427Z,3.60
2022-08-22T09:48:59.344Z,3.70
2022-08-22T09:51:45.758Z,3.20
2022-08-22T09:54:34.315Z,3.50
2022-08-22T09:57:22.485Z,3.20
2022-08-22T10:00:15.761Z,4.17
2022-08-22T10:03:03.088Z,3.80
2022-08-22T10:06:09.103Z,3.20
2022-08-22T10:08:47.198Z,3.47
2022-08-22T10:11:19.756Z,3.30
2022-08-22T10:14:08.273Z,3.30
2022-08-22T10:17:13.356Z,3.13
2022-08-22T10:19:53.024Z,3.53
2022-08-22T10:22:23.458Z,3.17
2022-08-22T10:25:07.553Z,3.30
2022-08-22T10:27:40.423Z,2.57
2022-08-22T10:30:13.242Z,3.00
2022-08-22T10:32:45.023Z,3.00
2022-08-22T10:35:25.730Z,2.70
2022-08-22T10:38:00.458Z,2.60
2022-08-22T10:40:38.523Z,2.73
2022-08-22T10:43:13.628Z,2.70
2022-08-22T10:45:48.163Z,2.70
2022-08-22T10:48:35.089Z,2.53
2022-08-22T10:51:16.520Z,2.40
2022-08-22T10:54:07.220Z,2.40
2022-08-22T10:56:40.822Z,2.50
2022-08-22T10:59:32.634Z,2.47
2022-08-22T11:02:27.631Z,2.40
2022-08-22T11:05:08.138Z,2.03
2022-08-22T11:07:53.477Z,2.10
2022-08-22T11:11:00.695Z,2.57
2022-08-22T11:13:31.716Z,2.20
2022-08-22T11:16:22.319Z,2.40
2022-08-22T11:19:15.160Z,2.33
2022-08-22T11:22:00.686Z,2.60
2022-08-22T11:24:35.285Z,2.10
2022-08-22T11:27:20.838Z,2.53
2022-08-22T11:30:02.496Z,2.30
2022-08-22T11:32:43.472Z,2.20
2022-08-22T11:35:16.553Z,2.10
2022-08-22T11:37:51.336Z,2.30
2022-08-22T11:40:38.530Z,2.10
2022-08-22T11:43:32.750Z,2.00
2022-08-22T11:46:32.361Z,1.80
2022-08-22T11:49:25.617Z,2.40
2022-08-22T11:52:05.430Z,2.10
2022-08-22T11:54:35.437Z,2.30
2022-08-22T11:57:05.190Z,1.73
2022-08-22T12:00:11.701Z,1.93
2022-08-22T12:02:42.949Z,2.00
2022-08-22T12:05:24.500Z,2.20
2022-08-22T12:08:00.133Z,2.57
2022-08-22T12:10:37.415Z,1.70
2022-08-22T12:13:17.013Z,2.00
2022-08-22T12:16:09.469Z,1.67
2022-08-22T12:18:52.879Z,1.83
2022-08-22T12:21:51.764Z,2.40
2022-08-22T12:24:32.942Z,2.27
2022-08-22T12:27:09.527Z,1.93
2022-08-22T12:30:02.671Z,1.70
2022-08-22T12:33:01.053Z,1.57
2022-08-22T12:35:43.087Z,1.60
2022-08-22T12:38:39.514Z,2.13
2022-08-22T12:41:11.701Z,2.03
2022-08-22T12:43:50.347Z,1.90
2022-08-22T12:46:28.784Z,1.70
2022-08-22T12:49:36.171Z,2.00
2022-08-22T12:52:31.261Z,2.00
2022-08-22T12:55:41.773Z,2.40
2022-08-22T12:58:34.127Z,1.87
2022-08-22T13:01:17.649Z,1.90
2022-08-22T13:03:51.976Z,1.57
2022-08-22T13:06:33.989Z,1.90
2022-08-22T13:09:11.179Z,1.77
2022-08-22T13:11:40.517Z,1.70
2022-08-22T13:14:09.229Z,1.90
2022-08-22T13:16:51.029Z,2.03
2022-08-22T13:19:23.858Z,2.30
2022-08-22T13:22:12.940Z,2.00
2022-08-22T13:24:51.753Z,1.53
2022-08-22T13:27:50.962Z,1.67
2022-08-22T13:30:32.559Z,1.90
2022-08-22T13:33:09.832Z,2.00
2022-08-22T13:35:53.047Z,1.77
2022-08-22T13:38:25.671Z,2.20
2022-08-22T13:40:55.812Z,1.87
2022-08-22T13:43:29.752Z,2.03
2022-08-22T13:46:03.277Z,1.90
2022-08-22T13:48:56.680Z,2.00
2022-08-22T13:51:49.615Z,1.60
2022-08-22T13:54:29.226Z,2.00
2022-08-22T13:57:17.178Z,1.80
2022-08-22T13:59:59.439Z,2.10
2022-08-22T14:02:39.045Z,2.00
2022-08-22T14:05:17.588Z,1.70
2022-08-22T14:08:12.949Z,1.87
2022-08-22T14:10:46.146Z,1.53
2022-08-22T14:13:49.931Z,2.20
2022-08-22T14:16:26.481Z,2.07
2022-08-22T14:18:58.355Z,2.20
2022-08-22T14:21:40.778Z,2.13
2022-08-22T14:24:16.882Z,2.23
2022-08-22T14:27:05.609Z,2.00
2022-08-22T14:29:45.777Z,2.00
2022-08-22T14:32:22.813Z,1.77
2022-08-22T14:35:37.469Z,1.90
2022-08-22T14:38:17.624Z,2.27
2022-08-22T14:40:45.194Z,1.83
2022-08-22T14:43:34.998Z,1.70
2022-08-22T14:46:10.552Z,1.80
2022-08-22T14:48:44.814Z,1.90
2022-08-22T14:51:23.861Z,2.03
2022-08-22T14:53:51.550Z,1.80
2022-08-22T14:56:22.243Z,2.10
2022-08-22T14:58:58.419Z,1.90
2022-08-22T15:01:29.964Z,2.17
2022-08-22T15:04:06.852Z,2.00
2022-08-22T15:06:53.420Z,1.90
2022-08-22T15:09:35.910Z,2.10
2022-08-22T15:12:08.699Z,1.90
2022-08-22T15:14:38.085Z,1.80
2022-08-22T15:17:08.973Z,1.87
2022-08-22T15:19:46.847Z,2.27
2022-08-22T15:22:15.163Z,1.60
2022-08-22T15:24:45.406Z,1.80
2022-08-22T15:27:19.739Z,1.60
2022-08-22T15:29:57.099Z,1.70
2022-08-22T15:32:29.265Z,2.00
2022-08-22T15:35:27.029Z,1.80
2022-08-22T15:38:07.534Z,1.93
2022-08-22T15:40:41.684Z,2.00
2022-08-22T15:43:20.157Z,1.67
2022-08-22T15:45:48.985Z,1.87
2022-08-22T15:48:31.058Z,2.10
2022-08-22T15:51:10.262Z,2.23
2022-08-22T15:53:43.154Z,2.10
2022-08-22T15:56:12.584Z,1.63
2022-08-22T15:58:48.615Z,1.90
2022-08-22T16:01:24.362Z,1.97
2022-08-22T16:04:01.073Z,1.70
2022-08-22T16:06:44.303Z,1.60
2022-08-22T16:09:35.374Z,1.93
2022-08-22T16:12:30.042Z,1.93
2022-08-22T16:14:58.616Z,1.87
2022-08-22T16:17:25.273Z,1.67
2022-08-22T16:20:19.530Z,1.70
2022-08-22T16:22:58.991Z,1.70
2022-08-22T16:25:44.833Z,2.17
2022-08-22T16:28:56.350Z,1.93
2022-08-22T16:31:38.780Z,2.03
2022-08-22T16:34:20.530Z,2.00
2022-08-22T16:37:08.237Z,1.80
2022-08-22T16:39:43.328Z,2.03
2022-08-22T16:42:25.347Z,2.20
2022-08-22T16:44:55.940Z,1.80
2022-08-22T16:47:41.915Z,2.13
2022-08-22T16:50:18.394Z,1.83
2022-08-22T16:52:59.400Z,2.00
2022-08-22T16:55:29.482Z,1.93
2022-08-22T16:58:07.415Z,2.33
2022-08-22T17:01:13.036Z,2.10
2022-08-22T17:03:46.049Z,2.30
2022-08-22T17:06:32.564Z,2.10
2022-08-22T17:09:30.036Z,1.80
2022-08-22T17:12:34.589Z,2.00
2022-08-22T17:15:25.385Z,2.13
2022-08-22T17:18:14.138Z,1.83
2022-08-22T17:21:13.983Z,1.80
2022-08-22T17:23:59.453Z,2.00
2022-08-22T17:26:26.128Z,2.33
2022-08-22T17:29:15.761Z,2.20
2022-08-22T17:31:57.904Z,1.90
2022-08-22T17:34:39.897Z,2.20
2022-08-22T17:37:11.762Z,1.70
2022-08-22T17:39:55.950Z,1.80
2022-08-22T17:42:38.428Z,1.70
2022-08-22T17:45:14.004Z,1.97
2022-08-22T17:47:46.587Z,1.63
2022-08-22T17:50:16.411Z,1.80
2022-08-22T17:52:49.385Z,2.23
2022-08-22T17:55:21.171Z,2.10
2022-08-22T17:57:53.672Z,1.90
2022-08-22T18:00:36.698Z,1.70
2022-08-22T18:03:08.873Z,2.03
2022-08-22T18:05:45.239Z,1.80
2022-08-22T18:08:37.439Z,1.57
2022-08-22T18:11:12.247Z,2.13
2022-08-22T18:13:45.674Z,2.00
2022-08-22T18:16:23.243Z,1.90
2022-08-22T18:18:53.530Z,2.10
2022-08-22T18:21:28.940Z,2.20
2022-08-22T18:24:33.232Z,1.97
2022-08-22T18:27:08.219Z,2.13
2022-08-22T18:29:52.580Z,2.03
2022-08-22T18:32:48.256Z,1.93
2022-08-22T18:35:49.909Z,2.27
2022-08-22T18:38:26.278Z,2.53
2022-08-22T18:40:59.150Z,2.53
2022-08-22T18:43:36.415Z,2.20
2022-08-22T18:46:25.747Z,2.30
2022-08-22T18:49:14.083Z,2.27
2022-08-22T18:51:41.683Z,2.77
2022-08-22T18:54:08.287Z,2.27
2022-08-22T18:57:00.028Z,2.20
2022-08-22T18:59:26.783Z,2.20
2022-08-22T19:02:17.364Z,2.17
2022-08-22T19:05:08.990Z,1.90
2022-08-22T19:07:44.470Z,2.40
2022-08-22T19:10:20.763Z,1.73
2022-08-22T19:13:00.018Z,1.83
2022-08-22T19:15:40.180Z,1.80
2022-08-22T19:18:25.690Z,2.20
2022-08-22T19:21:43.900Z,2.30
2022-08-22T19:24:19.744Z,2.50
2022-08-22T19:26:51.362Z,2.23
2022-08-22T19:29:17.964Z,2.20
2022-08-22T19:31:58.099Z,2.40
2022-08-22T19:34:32.104Z,1.83
2022-08-22T19:37:31.021Z,2.70
2022-08-22T19:40:06.876Z,2.17
2022-08-22T19:42:36.677Z,2.13
2022-08-22T19:45:06.665Z,2.37
2022-08-22T19:47:36.755Z,2.30
2022-08-22T19:50:25.047Z,2.20
2022-08-22T19:53:39.914Z,3.60
2022-08-22T19:56:42.122Z,3.43
2022-08-22T19:59:31.795Z,2.23
2022-08-22T20:02:08.578Z,2.17
2022-08-22T20:04:53.688Z,2.63
2022-08-22T20:07:29.466Z,4.00
2022-08-22T20:10:11.014Z,2.90
2022-08-22T20:12:47.209Z,1.90
2022-08-22T20:15:21.626Z,2.30
2022-08-22T20:20:39.385Z,2.00
2022-08-22T20:23:23.241Z,3.10
2022-08-22T20:25:52.995Z,2.10
2022-08-22T20:28:32.029Z,2.00
2022-08-22T20:31:04.559Z,2.70
2022-08-22T20:33:38.312Z,2.30
2022-08-22T20:36:24.246Z,2.60
2022-08-22T20:39:00.629Z,2.50
2022-08-22T20:41:42.926Z,2.27
2022-08-22T20:44:23.282Z,2.20
2022-08-22T20:46:58.094Z,2.60
2022-08-22T20:49:37.993Z,1.90
2022-08-22T20:52:08.893Z,2.33
2022-08-22T20:54:40.858Z,2.37
2022-08-22T20:57:16.184Z,2.53
2022-08-22T20:59:58.399Z,3.40
2022-08-22T21:02:26.388Z,2.73
2022-08-22T21:05:00.375Z,2.40
2022-08-22T21:07:31.632Z,2.50
2022-08-22T21:10:40.031Z,2.60
2022-08-22T21:13:08.685Z,3.13
2022-08-22T21:15:44.023Z,2.77
2022-08-22T21:18:13.280Z,2.60
2022-08-22T21:20:40.478Z,2.43
2022-08-22T21:23:12.396Z,2.30
2022-08-22T21:25:58.642Z,3.10
2022-08-22T21:28:31.667Z,2.50
2022-08-22T21:30:59.595Z,3.10
2022-08-22T21:33:26.437Z,2.30
2022-08-22T21:35:58.974Z,2.67
2022-08-22T21:38:26.219Z,2.43
2022-08-22T21:40:53.219Z,2.40
2022-08-22T21:43:38.047Z,2.83
2022-08-22T21:46:06.310Z,2.30
2022-08-22T21:48:37.758Z,2.30
2022-08-22T21:51:23.453Z,2.60
2022-08-22T21:53:56.071Z,2.30
2022-08-22T21:56:37.233Z,2.73
2022-08-22T21:59:21.247Z,3.03
2022-08-22T22:01:52.495Z,2.90
2022-08-22T22:04:21.696Z,2.63
2022-08-22T22:06:48.525Z,2.73
2022-08-22T22:09:15.472Z,2.53
2022-08-22T22:11:42.232Z,3.10
2022-08-22T22:14:09.089Z,3.20
2022-08-22T22:16:38.577Z,2.53
2022-08-22T22:19:07.899Z,3.10
2022-08-22T22:21:40.455Z,2.40
2022-08-22T22:24:07.220Z,3.00
2022-08-22T22:26:38.750Z,2.73
2022-08-22T22:29:05.730Z,3.47
2022-08-22T22:31:35.693Z,3.03
2022-08-22T22:34:05.307Z,3.20
2022-08-22T22:36:32.730Z,3.20
2022-08-22T22:38:59.614Z,3.40
2022-08-22T22:41:26.423Z,3.60
2022-08-22T22:43:53.825Z,3.30
2022-08-22T22:46:21.707Z,3.93
2022-08-22T22:48:48.738Z,3.83
2022-08-22T22:51:16.208Z,4.07
2022-08-22T22:53:43.850Z,3.67
2022-08-22T22:56:13.904Z,3.70
2022-08-22T22:58:40.906Z,3.63
2022-08-22T23:01:19.222Z,3.67
2022-08-22T23:03:46.502Z,3.43
2022-08-22T23:06:19.249Z,3.43
2022-08-22T23:08:46.531Z,3.43
2022-08-22T23:11:18.580Z,3.37
2022-08-22T23:13:45.478Z,3.20
2022-08-22T23:16:15.055Z,3.50
2022-08-22T23:18:42.369Z,3.50
2022-08-22T23:21:24.608Z,3.40
2022-08-22T23:23:56.540Z,3.83
2022-08-22T23:26:23.811Z,3.07
2022-08-22T23:28:51.164Z,3.03
2022-08-22T23:31:30.818Z,2.80
2022-08-22T23:34:01.951Z,2.73
2022-08-22T23:36:29.914Z,2.50
2022-08-22T23:38:57.038Z,3.63
2022-08-22T23:41:24.005Z,3.23
2022-08-22T23:43:53.151Z,3.00
2022-08-22T23:46:23.479Z,3.27
2022-08-22T23:48:50.514Z,2.93
2022-08-22T23:51:22.952Z,3.03
2022-08-22T23:53:50.839Z,2.93
2022-08-22T23:56:25.349Z,2.80
2022-08-22T23:58:53.257Z,3.17
